createdAt,value
2023-02-17T00:01:13.540Z,22.00
2023-02-17T00:04:09.838Z,21.67
2023-02-17T00:06:38.702Z,24.27
2023-02-17T00:12:08.856Z,24.20
2023-02-17T00:14:36.351Z,23.73
2023-02-17T00:17:03.889Z,24.27
2023-02-17T00:19:31.446Z,23.23
2023-02-17T00:22:01.145Z,23.67
2023-02-17T00:27:28.195Z,22.47
2023-02-17T00:29:55.731Z,23.70
2023-02-17T00:32:23.188Z,24.10
2023-02-17T00:34:52.783Z,22.60
2023-02-17T00:37:21.617Z,21.17
2023-02-17T00:39:49.411Z,22.40
2023-02-17T00:42:19.705Z,21.13
2023-02-17T00:47:49.937Z,21.07
2023-02-17T00:50:18.174Z,22.40
2023-02-17T00:52:47.074Z,21.80
2023-02-17T00:55:14.655Z,22.30
2023-02-17T00:57:42.197Z,22.87
2023-02-17T01:03:11.843Z,20.40
2023-02-17T01:05:42.288Z,20.40
2023-02-17T01:08:11.482Z,21.47
2023-02-17T01:10:39.664Z,20.87
2023-02-17T01:15:55.896Z,22.77
2023-02-17T01:18:24.681Z,21.63
2023-02-17T01:20:52.689Z,22.33
2023-02-17T01:23:21.595Z,22.87
2023-02-17T01:25:50.613Z,23.13
2023-02-17T01:28:20.235Z,22.67
2023-02-17T01:33:47.172Z,22.63
2023-02-17T01:36:17.084Z,24.33
2023-02-17T01:38:47.246Z,24.93
2023-02-17T01:41:15.556Z,22.20
2023-02-17T01:43:43.494Z,23.57
2023-02-17T01:46:10.959Z,25.97
2023-02-17T01:51:39.025Z,26.30
2023-02-17T01:57:19.504Z,23.70
2023-02-17T01:59:47.466Z,23.27
2023-02-17T02:02:15.532Z,24.63
2023-02-17T02:04:44.663Z,24.83
2023-02-17T02:07:16.902Z,24.90
2023-02-17T02:12:43.145Z,24.23
2023-02-17T02:15:13.385Z,24.73
2023-02-17T02:17:48.294Z,25.23
2023-02-17T02:23:51.226Z,23.97
2023-02-17T02:29:58.022Z,23.93
2023-02-17T02:32:40.613Z,24.10
2023-02-17T02:35:12.024Z,22.80
2023-02-17T02:37:44.267Z,23.83
2023-02-17T02:43:13.285Z,24.20
2023-02-17T02:45:40.829Z,24.87
2023-02-17T02:48:09.674Z,24.00
2023-02-17T02:50:48.718Z,23.83
2023-02-17T02:56:23.242Z,22.23
2023-02-17T03:01:54.974Z,23.73
2023-02-17T03:04:31.797Z,25.03
2023-02-17T03:09:32.083Z,24.23
2023-02-17T03:11:59.787Z,23.93
2023-02-17T03:14:28.097Z,24.00
2023-02-17T03:16:55.686Z,23.30
2023-02-17T03:19:27.213Z,25.27
2023-02-17T03:25:05.940Z,24.63
2023-02-17T03:30:35.954Z,23.97
2023-02-17T03:33:03.525Z,22.93
2023-02-17T03:35:33.550Z,23.60
2023-02-17T03:38:01.053Z,23.43
2023-02-17T03:40:28.580Z,23.27
2023-02-17T03:42:57.000Z,22.43
2023-02-17T03:45:24.518Z,22.90
2023-02-17T03:47:52.032Z,22.23
2023-02-17T03:50:19.620Z,21.73
2023-02-17T03:55:51.179Z,20.47
2023-02-17T03:58:18.651Z,21.27
2023-02-17T04:00:49.207Z,21.73
2023-02-17T04:03:16.715Z,21.50
2023-02-17T04:08:33.354Z,21.63
2023-02-17T04:11:03.258Z,21.17
2023-02-17T04:13:54.771Z,20.00
2023-02-17T04:16:22.374Z,21.33
2023-02-17T04:18:49.818Z,23.13
2023-02-17T04:21:17.426Z,23.43
2023-02-17T04:26:49.115Z,23.10
2023-02-17T04:29:16.631Z,22.27
2023-02-17T04:31:44.314Z,24.23
2023-02-17T04:34:11.924Z,23.70
2023-02-17T04:39:41.854Z,24.83
2023-02-17T04:42:10.630Z,25.63
2023-02-17T04:44:38.060Z,24.10
2023-02-17T04:47:05.646Z,26.97
2023-02-17T04:52:14.617Z,25.80
2023-02-17T04:54:42.212Z,28.40
2023-02-17T04:57:10.989Z,27.97
2023-02-17T04:59:38.574Z,28.50
2023-02-17T05:02:06.126Z,29.40
2023-02-17T05:04:57.552Z,28.03
2023-02-17T05:07:27.121Z,28.03
2023-02-17T05:09:55.091Z,28.40
2023-02-17T05:12:23.864Z,27.97
2023-02-17T05:17:49.825Z,25.97
2023-02-17T05:20:17.256Z,27.97
2023-02-17T05:22:44.759Z,28.83
2023-02-17T05:25:12.204Z,28.27
2023-02-17T05:27:40.974Z,27.30
2023-02-17T05:33:06.920Z,26.63
2023-02-17T05:35:35.345Z,26.07
2023-02-17T05:38:02.918Z,26.00
2023-02-17T05:40:30.527Z,25.37
2023-02-17T05:46:04.978Z,22.50
2023-02-17T05:48:33.000Z,23.47
2023-02-17T05:51:00.737Z,23.70
2023-02-17T05:53:28.321Z,25.20
2023-02-17T05:55:55.914Z,24.17
2023-02-17T05:58:23.509Z,24.00
2023-02-17T06:00:51.112Z,24.13
2023-02-17T06:03:20.178Z,25.07
2023-02-17T06:05:47.840Z,23.93
2023-02-17T06:08:15.392Z,24.77
2023-02-17T06:10:43.576Z,24.20
2023-02-17T06:13:11.112Z,23.20
2023-02-17T06:15:38.902Z,23.03
2023-02-17T06:18:06.510Z,20.13
2023-02-17T06:23:24.343Z,22.80
2023-02-17T06:25:51.873Z,22.93
2023-02-17T06:28:19.426Z,20.97
2023-02-17T06:30:47.310Z,18.63
2023-02-17T06:33:14.766Z,20.60
2023-02-17T06:35:42.204Z,20.33
2023-02-17T06:38:09.730Z,18.63
2023-02-17T06:43:41.130Z,18.87
2023-02-17T06:46:08.986Z,17.97
2023-02-17T06:49:01.812Z,16.80
2023-02-17T06:51:29.643Z,16.77
2023-02-17T06:53:57.451Z,17.83
2023-02-17T06:56:25.065Z,17.77
2023-02-17T06:58:54.006Z,19.27
2023-02-17T07:01:23.502Z,18.27
2023-02-17T07:03:51.371Z,15.90
2023-02-17T07:09:21.932Z,17.77
2023-02-17T07:11:51.096Z,17.60
2023-02-17T07:17:25.492Z,17.70
2023-02-17T07:19:52.985Z,17.47
2023-02-17T07:22:21.464Z,17.20
2023-02-17T07:24:48.975Z,16.90
2023-02-17T07:27:16.371Z,17.00
2023-02-17T07:29:43.846Z,16.20
2023-02-17T07:32:23.062Z,17.07
2023-02-17T07:34:50.509Z,17.40
2023-02-17T07:37:19.943Z,17.53
2023-02-17T07:39:47.444Z,15.80
2023-02-17T07:42:14.988Z,16.67
2023-02-17T07:44:42.442Z,15.13
2023-02-17T07:47:09.941Z,16.90
2023-02-17T07:49:38.773Z,16.07
2023-02-17T07:54:54.870Z,15.33
2023-02-17T07:57:22.405Z,15.20
2023-02-17T07:59:50.181Z,14.73
2023-02-17T08:02:17.754Z,14.87
2023-02-17T08:07:45.112Z,15.07
2023-02-17T08:10:31.350Z,14.70
2023-02-17T08:13:16.474Z,13.30
2023-02-17T08:18:48.083Z,13.87
2023-02-17T08:21:15.530Z,13.93
2023-02-17T08:23:45.456Z,14.00
2023-02-17T08:26:12.970Z,13.37
2023-02-17T08:28:40.422Z,12.13
2023-02-17T08:31:07.960Z,11.43
2023-02-17T08:33:35.455Z,12.30
2023-02-17T08:36:07.720Z,12.77
2023-02-17T08:38:35.453Z,12.10
2023-02-17T08:41:13.147Z,13.60
2023-02-17T08:46:37.181Z,11.30
2023-02-17T08:49:05.641Z,11.80
2023-02-17T08:51:33.116Z,10.57
2023-02-17T08:54:01.500Z,9.97
2023-02-17T08:59:38.088Z,9.90
2023-02-17T09:02:05.677Z,12.20
2023-02-17T09:04:33.391Z,11.70
2023-02-17T09:07:01.063Z,11.93
2023-02-17T09:09:29.237Z,12.30
2023-02-17T09:14:50.609Z,12.87
2023-02-17T09:17:18.338Z,13.43
2023-02-17T09:19:45.868Z,13.07
2023-02-17T09:22:30.588Z,12.97
2023-02-17T09:25:22.780Z,13.10
2023-02-17T09:27:50.311Z,14.00
2023-02-17T09:30:19.141Z,15.80
2023-02-17T09:32:46.700Z,14.60
2023-02-17T09:35:15.060Z,14.43
2023-02-17T09:37:42.619Z,14.63
2023-02-17T09:42:59.877Z,14.57
2023-02-17T09:48:30.102Z,13.87
2023-02-17T09:50:59.564Z,14.90
2023-02-17T09:56:32.628Z,16.47
2023-02-17T09:59:04.294Z,13.77
2023-02-17T10:01:34.358Z,16.60
2023-02-17T10:07:03.460Z,15.37
2023-02-17T10:09:34.757Z,15.83
2023-02-17T10:12:04.170Z,18.10
2023-02-17T10:14:34.559Z,17.47
2023-02-17T10:17:06.467Z,16.73
2023-02-17T10:19:37.233Z,17.37
2023-02-17T10:22:08.542Z,15.67
2023-02-17T10:27:38.374Z,18.03
2023-02-17T10:30:17.227Z,17.77
2023-02-17T10:33:14.785Z,16.83
2023-02-17T10:35:50.522Z,16.63
2023-02-17T10:38:19.841Z,17.30
2023-02-17T10:40:48.806Z,16.80
2023-02-17T10:43:22.176Z,15.60
2023-02-17T10:45:51.143Z,16.03
2023-02-17T10:48:23.021Z,16.40
2023-02-17T10:50:52.259Z,16.83
2023-02-17T10:56:25.511Z,16.30
2023-02-17T10:58:56.070Z,16.53
2023-02-17T11:01:24.018Z,15.70
2023-02-17T11:04:02.639Z,14.77
2023-02-17T11:06:30.923Z,14.53
2023-02-17T11:12:02.458Z,16.67
2023-02-17T11:14:31.286Z,16.00
2023-02-17T11:20:03.938Z,15.97
2023-02-17T11:22:35.291Z,13.40
2023-02-17T11:25:06.411Z,13.40
2023-02-17T11:27:33.871Z,14.20
2023-02-17T11:30:09.875Z,13.63
2023-02-17T11:32:37.467Z,15.67
2023-02-17T11:35:25.354Z,14.93
2023-02-17T11:37:54.174Z,13.97
2023-02-17T11:40:26.919Z,14.23
2023-02-17T11:42:55.455Z,13.80
2023-02-17T11:45:24.252Z,13.40
2023-02-17T11:48:02.676Z,13.77
2023-02-17T11:53:23.625Z,12.90
2023-02-17T11:59:05.603Z,13.40
2023-02-17T12:01:50.184Z,12.93
2023-02-17T12:04:27.977Z,14.13
2023-02-17T12:07:08.807Z,14.10
2023-02-17T12:09:47.196Z,14.67
2023-02-17T12:12:21.416Z,14.10
2023-02-17T12:15:02.469Z,13.70
2023-02-17T12:17:39.057Z,13.13
2023-02-17T12:20:15.750Z,12.93
2023-02-17T12:22:46.793Z,10.67
2023-02-17T12:25:23.918Z,12.97
2023-02-17T12:28:00.940Z,12.30
2023-02-17T12:30:37.551Z,11.97
2023-02-17T12:33:16.645Z,12.33
2023-02-17T12:35:50.865Z,12.50
2023-02-17T12:38:20.263Z,12.77
2023-02-17T12:43:42.362Z,14.03
2023-02-17T12:46:13.018Z,13.07
2023-02-17T12:48:42.961Z,11.03
2023-02-17T12:51:13.000Z,12.00
2023-02-17T12:56:38.610Z,12.47
2023-02-17T13:02:02.990Z,12.50
2023-02-17T13:07:43.500Z,8.40
2023-02-17T13:10:21.851Z,8.93
2023-02-17T13:13:06.413Z,10.27
2023-02-17T13:15:37.404Z,7.87
2023-02-17T13:21:03.027Z,6.57
2023-02-17T13:23:39.242Z,7.53
2023-02-17T13:26:35.478Z,7.87
2023-02-17T13:29:18.055Z,7.27
2023-02-17T13:31:53.576Z,7.57
2023-02-17T13:34:30.169Z,7.60
2023-02-17T13:36:58.303Z,6.40
2023-02-17T13:39:34.603Z,7.30
2023-02-17T13:42:02.750Z,7.47
2023-02-17T13:44:39.276Z,7.33
2023-02-17T13:47:13.866Z,6.57
2023-02-17T13:49:41.673Z,6.30
2023-02-17T13:54:59.149Z,7.13
2023-02-17T13:57:28.575Z,7.47
2023-02-17T14:00:09.009Z,7.53
2023-02-17T14:02:40.063Z,7.97
2023-02-17T14:08:06.182Z,7.00
2023-02-17T14:13:37.264Z,6.93
2023-02-17T14:16:07.449Z,6.83
2023-02-17T14:18:37.742Z,7.43
2023-02-17T14:21:07.943Z,6.13
2023-02-17T14:26:37.819Z,7.80
2023-02-17T14:29:07.553Z,7.00
2023-02-17T14:31:40.601Z,6.33
2023-02-17T14:34:10.407Z,6.57
2023-02-17T14:39:25.644Z,5.93
2023-02-17T14:41:53.069Z,5.77
2023-02-17T14:47:19.980Z,6.50
2023-02-17T14:49:47.425Z,6.77
2023-02-17T14:52:20.058Z,6.60
2023-02-17T14:57:49.664Z,6.83
2023-02-17T15:00:17.664Z,6.90
2023-02-17T15:02:46.526Z,7.00
2023-02-17T15:05:13.928Z,8.00
2023-02-17T15:07:42.211Z,6.47
2023-02-17T15:10:18.292Z,6.87
2023-02-17T15:12:45.798Z,6.10
2023-02-17T15:15:18.471Z,7.63
2023-02-17T15:21:00.000Z,7.20
2023-02-17T15:23:31.691Z,6.97
2023-02-17T15:26:00.234Z,6.73
2023-02-17T15:28:27.641Z,6.80
2023-02-17T15:30:56.670Z,6.87
2023-02-17T15:33:24.998Z,6.67
2023-02-17T15:35:54.383Z,5.77
2023-02-17T15:38:24.326Z,6.60
2023-02-17T15:40:51.968Z,6.33
2023-02-17T15:46:22.652Z,6.10
2023-02-17T15:48:50.613Z,5.53
2023-02-17T15:51:19.920Z,5.47
2023-02-17T15:53:48.848Z,5.40
2023-02-17T15:56:20.383Z,5.83
2023-02-17T15:58:48.753Z,5.10
2023-02-17T16:01:19.644Z,5.60
2023-02-17T16:03:47.230Z,5.77
2023-02-17T16:06:14.636Z,5.83
2023-02-17T16:08:42.085Z,5.80
2023-02-17T16:11:13.271Z,6.80
2023-02-17T16:13:40.985Z,5.90
2023-02-17T16:16:16.137Z,6.37
2023-02-17T16:19:07.574Z,5.30
2023-02-17T16:21:35.122Z,6.07
2023-02-17T16:26:52.328Z,5.70
2023-02-17T16:29:22.336Z,5.70
2023-02-17T16:31:49.940Z,6.17
2023-02-17T16:34:20.709Z,6.20
2023-02-17T16:36:48.749Z,5.70
2023-02-17T16:39:17.402Z,5.07
2023-02-17T16:41:45.456Z,4.63
2023-02-17T16:44:15.069Z,5.77
2023-02-17T16:46:47.292Z,6.53
2023-02-17T16:49:20.223Z,7.07
2023-02-17T16:51:47.847Z,6.53
2023-02-17T16:57:03.788Z,6.60
2023-02-17T16:59:32.873Z,6.23
2023-02-17T17:02:01.573Z,6.30
2023-02-17T17:04:29.202Z,6.00
2023-02-17T17:10:06.846Z,4.90
2023-02-17T17:12:33.121Z,6.30
2023-02-17T17:15:38.554Z,6.53
2023-02-17T17:18:08.876Z,6.30
2023-02-17T17:20:41.680Z,6.33
2023-02-17T17:23:13.581Z,5.90
2023-02-17T17:25:42.981Z,5.97
2023-02-17T17:28:13.602Z,5.90
2023-02-17T17:30:41.161Z,5.47
2023-02-17T17:33:09.995Z,5.73
2023-02-17T17:35:38.080Z,5.90
2023-02-17T17:40:55.622Z,5.63
2023-02-17T17:43:24.076Z,6.17
2023-02-17T17:45:52.100Z,6.60
2023-02-17T17:48:20.942Z,7.40
2023-02-17T17:53:36.789Z,6.00
2023-02-17T17:56:04.722Z,6.40
2023-02-17T17:58:33.599Z,5.87
2023-02-17T18:01:01.913Z,6.40
2023-02-17T18:03:30.670Z,6.07
2023-02-17T18:05:58.705Z,5.97
2023-02-17T18:08:26.235Z,5.90
2023-02-17T18:10:53.713Z,6.03
2023-02-17T18:16:10.123Z,5.40
2023-02-17T18:18:39.581Z,6.60
2023-02-17T18:21:07.071Z,5.97
2023-02-17T18:23:34.542Z,5.17
2023-02-17T18:26:02.146Z,6.43
2023-02-17T18:28:29.726Z,6.23
2023-02-17T18:30:57.300Z,5.97
2023-02-17T18:33:35.518Z,5.23
2023-02-17T18:36:09.039Z,6.67
2023-02-17T18:41:38.698Z,7.60
2023-02-17T18:44:06.562Z,7.50
2023-02-17T18:46:34.291Z,7.87
2023-02-17T18:49:01.882Z,8.27
2023-02-17T18:54:33.014Z,8.93
2023-02-17T18:57:01.809Z,8.53
2023-02-17T18:59:29.299Z,7.33
2023-02-17T19:01:56.740Z,7.90
2023-02-17T19:04:24.595Z,7.07
2023-02-17T19:06:52.121Z,6.40
2023-02-17T19:09:19.547Z,5.63
2023-02-17T19:14:47.894Z,4.57
2023-02-17T19:17:18.225Z,5.80
2023-02-17T19:19:45.930Z,5.00
2023-02-17T19:22:13.358Z,5.00
2023-02-17T19:27:40.687Z,5.60
2023-02-17T19:30:11.876Z,5.20
2023-02-17T19:32:40.375Z,4.80
2023-02-17T19:35:10.618Z,4.60
2023-02-17T19:37:38.980Z,4.83
2023-02-17T19:40:07.886Z,4.40
2023-02-17T19:42:35.595Z,4.43
2023-02-17T19:48:07.421Z,4.33
2023-02-17T19:50:34.856Z,5.53
2023-02-17T19:53:02.385Z,4.80
2023-02-17T19:55:29.817Z,4.60
2023-02-17T19:57:57.282Z,4.70
2023-02-17T20:00:25.075Z,4.70
2023-02-17T20:02:52.570Z,5.17
2023-02-17T20:05:21.443Z,4.27
2023-02-17T20:07:50.401Z,5.23
2023-02-17T20:13:06.683Z,4.53
2023-02-17T20:15:34.114Z,4.50
2023-02-17T20:18:01.578Z,4.20
2023-02-17T20:20:30.325Z,4.27
2023-02-17T20:22:57.750Z,4.50
2023-02-17T20:25:25.271Z,4.20
2023-02-17T20:27:53.130Z,4.60
2023-02-17T20:33:22.666Z,4.83
2023-02-17T20:35:51.499Z,4.70
2023-02-17T20:38:19.006Z,4.20
2023-02-17T20:40:46.491Z,4.77
2023-02-17T20:43:15.256Z,4.80
2023-02-17T20:45:43.161Z,4.37
2023-02-17T20:51:13.993Z,4.50
2023-02-17T20:53:41.508Z,4.03
2023-02-17T20:56:13.002Z,4.33
2023-02-17T20:58:40.935Z,4.17
2023-02-17T21:04:13.913Z,7.77
2023-02-17T21:06:43.165Z,5.03
2023-02-17T21:12:02.180Z,4.90
2023-02-17T21:14:29.661Z,4.80
2023-02-17T21:16:57.150Z,5.17
2023-02-17T21:19:24.778Z,5.10
2023-02-17T21:24:52.849Z,4.97
2023-02-17T21:27:20.313Z,5.07
2023-02-17T21:29:47.979Z,4.83
2023-02-17T21:32:15.504Z,5.67
2023-02-17T21:37:45.065Z,5.63
2023-02-17T21:40:13.107Z,4.70
2023-02-17T21:42:55.361Z,5.30
2023-02-17T21:45:23.206Z,5.93
2023-02-17T21:50:49.630Z,4.90
2023-02-17T21:53:18.483Z,4.90
2023-02-17T21:55:47.144Z,4.67
2023-02-17T21:58:14.821Z,5.47
2023-02-17T22:00:42.309Z,4.90
2023-02-17T22:03:09.791Z,4.80
2023-02-17T22:05:37.216Z,5.13
2023-02-17T22:08:05.062Z,5.47
2023-02-17T22:10:37.443Z,5.30
2023-02-17T22:13:06.019Z,5.40
2023-02-17T22:15:33.559Z,5.20
2023-02-17T22:18:01.153Z,5.27
2023-02-17T22:20:29.148Z,5.43
2023-02-17T22:22:56.354Z,5.83
2023-02-17T22:25:24.309Z,5.50
2023-02-17T22:27:53.082Z,5.60
2023-02-17T22:30:20.829Z,5.90
2023-02-17T22:32:48.302Z,5.10
2023-02-17T22:35:15.895Z,5.53
2023-02-17T22:40:31.779Z,5.33
2023-02-17T22:43:00.592Z,5.70
2023-02-17T22:45:28.106Z,5.57
2023-02-17T22:47:55.646Z,5.80
2023-02-17T22:50:23.143Z,5.63
2023-02-17T22:55:52.500Z,5.63
2023-02-17T22:58:21.718Z,5.40
2023-02-17T23:00:49.345Z,5.63
2023-02-17T23:03:17.211Z,5.90
2023-02-17T23:05:45.330Z,5.43
2023-02-17T23:08:12.926Z,5.77
2023-02-17T23:13:30.089Z,5.60
2023-02-17T23:15:57.547Z,5.73
2023-02-17T23:18:25.050Z,5.50
2023-02-17T23:20:52.619Z,5.60
2023-02-17T23:26:15.229Z,5.50
2023-02-17T23:28:44.310Z,5.53
2023-02-17T23:34:00.648Z,5.27
2023-02-17T23:36:28.135Z,4.90
2023-02-17T23:38:56.482Z,6.93
2023-02-17T23:41:23.997Z,4.87
2023-02-17T23:43:52.790Z,5.37
2023-02-17T23:46:21.230Z,5.20
2023-02-17T23:48:48.851Z,4.90
2023-02-17T23:51:18.674Z,4.37
2023-02-17T23:56:30.966Z,4.50
2023-02-17T23:59:00.076Z,5.43
